sensor_id;sensor_type;location;lat;lon;timestamp;P1;durP1;ratioP1;P2;durP2;ratioP2
2326;SDS011;1174;51.588;7.328;2023-04-07T00:01:13;3.83;;;3.47;;
2326;SDS011;1174;51.588;7.328;2023-04-07T00:03:42;3.40;;;2.50;;
2326;SDS011;1174;51.588;7.328;2023-04-07T00:06:09;5.50;;;2.50;;
2326;SDS011;1174;51.588;7.328;2023-04-07T00:08:36;4.83;;;2.40;;
2326;SDS011;1174;51.588;7.328;2023-04-07T00:11:05;3.47;;;2.53;;
2326;SDS011;1174;51.588;7.328;2023-04-07T00:13:32;5.80;;;3.10;;
2326;SDS011;1174;51.588;7.328;2023-04-07T00:16:01;5.17;;;3.60;;
2326;SDS011;1174;51.588;7.328;2023-04-07T00:18:28;4.47;;;2.83;;
2326;SDS011;1174;51.588;7.328;2023-04-07T00:20:56;4.40;;;2.80;;
2326;SDS011;1174;51.588;7.328;2023-04-07T00:23:26;4.73;;;2.80;;
2326;SDS011;1174;51.588;7.328;2023-04-07T00:25:52;4.17;;;3.77;;
2326;SDS011;1174;51.588;7.328;2023-04-07T00:28:21;4.03;;;3.07;;
2326;SDS011;1174;51.588;7.328;2023-04-07T00:30:51;5.30;;;4.17;;
2326;SDS011;1174;51.588;7.328;2023-04-07T00:33:18;4.53;;;3.03;;
2326;SDS011;1174;51.588;7.328;2023-04-07T00:35:46;2.93;;;2.43;;
2326;SDS011;1174;51.588;7.328;2023-04-07T00:38:13;3.70;;;3.33;;
2326;SDS011;1174;51.588;7.328;2023-04-07T00:40:40;6.60;;;3.50;;
2326;SDS011;1174;51.588;7.328;2023-04-07T00:43:07;4.40;;;3.00;;
2326;SDS011;1174;51.588;7.328;2023-04-07T00:45:36;4.50;;;3.13;;
2326;SDS011;1174;51.588;7.328;2023-04-07T00:48:03;5.73;;;3.70;;
2326;SDS011;1174;51.588;7.328;2023-04-07T00:50:31;4.50;;;3.00;;
2326;SDS011;1174;51.588;7.328;2023-04-07T00:52:58;9.40;;;3.70;;
2326;SDS011;1174;51.588;7.328;2023-04-07T00:55:26;5.47;;;4.43;;
2326;SDS011;1174;51.588;7.328;2023-04-07T00:57:56;5.70;;;3.63;;
2326;SDS011;1174;51.588;7.328;2023-04-07T01:00:23;7.13;;;6.33;;
2326;SDS011;1174;51.588;7.328;2023-04-07T01:02:55;8.13;;;3.67;;
2326;SDS011;1174;51.588;7.328;2023-04-07T01:05:27;7.20;;;5.03;;
2326;SDS011;1174;51.588;7.328;2023-04-07T01:08:05;7.20;;;4.13;;
2326;SDS011;1174;51.588;7.328;2023-04-07T01:10:40;6.10;;;4.27;;
2326;SDS011;1174;51.588;7.328;2023-04-07T01:13:17;5.37;;;3.73;;
2326;SDS011;1174;51.588;7.328;2023-04-07T01:15:52;3.93;;;3.20;;
2326;SDS011;1174;51.588;7.328;2023-04-07T01:18:23;4.40;;;3.53;;
2326;SDS011;1174;51.588;7.328;2023-04-07T01:20:52;7.60;;;5.67;;
2326;SDS011;1174;51.588;7.328;2023-04-07T01:23:30;5.90;;;3.47;;
2326;SDS011;1174;51.588;7.328;2023-04-07T01:26:11;5.23;;;4.60;;
2326;SDS011;1174;51.588;7.328;2023-04-07T01:28:56;7.37;;;4.33;;
2326;SDS011;1174;51.588;7.328;2023-04-07T01:31:48;7.03;;;3.90;;
2326;SDS011;1174;51.588;7.328;2023-04-07T01:34:16;7.47;;;4.13;;
2326;SDS011;1174;51.588;7.328;2023-04-07T01:36:44;8.60;;;4.33;;
2326;SDS011;1174;51.588;7.328;2023-04-07T01:39:13;5.97;;;3.80;;
2326;SDS011;1174;51.588;7.328;2023-04-07T01:41:41;8.10;;;4.10;;
2326;SDS011;1174;51.588;7.328;2023-04-07T01:44:10;6.30;;;4.80;;
2326;SDS011;1174;51.588;7.328;2023-04-07T01:46:38;6.43;;;4.27;;
2326;SDS011;1174;51.588;7.328;2023-04-07T01:49:06;6.27;;;3.87;;
2326;SDS011;1174;51.588;7.328;2023-04-07T01:51:34;6.30;;;3.87;;
2326;SDS011;1174;51.588;7.328;2023-04-07T01:54:01;6.93;;;4.03;;
2326;SDS011;1174;51.588;7.328;2023-04-07T01:56:32;6.87;;;3.93;;
2326;SDS011;1174;51.588;7.328;2023-04-07T01:59:00;4.73;;;4.13;;
2326;SDS011;1174;51.588;7.328;2023-04-07T02:01:28;6.77;;;5.10;;
2326;SDS011;1174;51.588;7.328;2023-04-07T02:03:55;7.93;;;4.53;;
2326;SDS011;1174;51.588;7.328;2023-04-07T02:06:37;8.33;;;4.87;;
2326;SDS011;1174;51.588;7.328;2023-04-07T02:09:09;7.03;;;4.33;;
2326;SDS011;1174;51.588;7.328;2023-04-07T02:11:38;7.57;;;4.00;;
2326;SDS011;1174;51.588;7.328;2023-04-07T02:14:07;10.17;;;5.30;;
2326;SDS011;1174;51.588;7.328;2023-04-07T02:16:38;8.40;;;5.47;;
2326;SDS011;1174;51.588;7.328;2023-04-07T02:19:08;7.17;;;5.80;;
2326;SDS011;1174;51.588;7.328;2023-04-07T02:21:37;7.57;;;5.37;;
2326;SDS011;1174;51.588;7.328;2023-04-07T02:24:06;9.83;;;6.30;;
2326;SDS011;1174;51.588;7.328;2023-04-07T02:26:34;6.63;;;4.47;;
2326;SDS011;1174;51.588;7.328;2023-04-07T02:29:01;12.47;;;6.20;;
2326;SDS011;1174;51.588;7.328;2023-04-07T02:31:28;9.97;;;4.47;;
2326;SDS011;1174;51.588;7.328;2023-04-07T02:33:55;10.07;;;5.37;;
2326;SDS011;1174;51.588;7.328;2023-04-07T02:36:22;11.37;;;7.03;;
2326;SDS011;1174;51.588;7.328;2023-04-07T02:38:52;8.60;;;5.87;;
2326;SDS011;1174;51.588;7.328;2023-04-07T02:41:19;7.23;;;3.80;;
2326;SDS011;1174;51.588;7.328;2023-04-07T02:43:47;6.73;;;4.27;;
2326;SDS011;1174;51.588;7.328;2023-04-07T02:46:14;7.07;;;5.37;;
2326;SDS011;1174;51.588;7.328;2023-04-07T02:48:41;8.50;;;4.87;;
2326;SDS011;1174;51.588;7.328;2023-04-07T02:51:08;8.13;;;5.00;;
2326;SDS011;1174;51.588;7.328;2023-04-07T02:53:36;12.60;;;6.00;;
2326;SDS011;1174;51.588;7.328;2023-04-07T02:56:05;7.17;;;5.33;;
2326;SDS011;1174;51.588;7.328;2023-04-07T02:58:32;8.97;;;6.43;;
2326;SDS011;1174;51.588;7.328;2023-04-07T03:01:02;17.17;;;6.40;;
2326;SDS011;1174;51.588;7.328;2023-04-07T03:03:30;12.30;;;5.90;;
2326;SDS011;1174;51.588;7.328;2023-04-07T03:05:57;8.03;;;5.63;;
2326;SDS011;1174;51.588;7.328;2023-04-07T03:08:24;10.97;;;6.20;;
2326;SDS011;1174;51.588;7.328;2023-04-07T03:10:51;11.07;;;6.07;;
2326;SDS011;1174;51.588;7.328;2023-04-07T03:13:21;10.87;;;5.33;;
2326;SDS011;1174;51.588;7.328;2023-04-07T03:15:48;9.07;;;5.50;;
2326;SDS011;1174;51.588;7.328;2023-04-07T03:18:24;11.93;;;6.40;;
2326;SDS011;1174;51.588;7.328;2023-04-07T03:20:51;10.53;;;5.50;;
2326;SDS011;1174;51.588;7.328;2023-04-07T03:23:21;9.43;;;4.87;;
2326;SDS011;1174;51.588;7.328;2023-04-07T03:25:52;12.20;;;6.50;;
2326;SDS011;1174;51.588;7.328;2023-04-07T03:28:21;13.33;;;8.13;;
2326;SDS011;1174;51.588;7.328;2023-04-07T03:30:48;8.43;;;6.10;;
2326;SDS011;1174;51.588;7.328;2023-04-07T03:33:15;10.97;;;6.70;;
2326;SDS011;1174;51.588;7.328;2023-04-07T03:35:43;11.47;;;6.17;;
2326;SDS011;1174;51.588;7.328;2023-04-07T03:38:10;11.33;;;7.30;;
2326;SDS011;1174;51.588;7.328;2023-04-07T03:40:38;11.00;;;6.80;;
2326;SDS011;1174;51.588;7.328;2023-04-07T03:43:05;10.10;;;6.40;;
2326;SDS011;1174;51.588;7.328;2023-04-07T03:45:38;11.13;;;6.07;;
2326;SDS011;1174;51.588;7.328;2023-04-07T03:48:05;10.87;;;5.77;;
2326;SDS011;1174;51.588;7.328;2023-04-07T03:50:34;8.43;;;6.60;;
2326;SDS011;1174;51.588;7.328;2023-04-07T03:53:01;9.73;;;6.70;;
2326;SDS011;1174;51.588;7.328;2023-04-07T03:55:28;10.13;;;6.80;;
2326;SDS011;1174;51.588;7.328;2023-04-07T03:57:56;11.00;;;7.00;;
2326;SDS011;1174;51.588;7.328;2023-04-07T04:00:23;14.50;;;6.97;;
2326;SDS011;1174;51.588;7.328;2023-04-07T04:02:52;10.77;;;6.70;;
2326;SDS011;1174;51.588;7.328;2023-04-07T04:05:19;14.10;;;7.30;;
2326;SDS011;1174;51.588;7.328;2023-04-07T04:07:46;9.13;;;7.27;;
2326;SDS011;1174;51.588;7.328;2023-04-07T04:10:15;10.23;;;6.80;;
2326;SDS011;1174;51.588;7.328;2023-04-07T04:12:42;10.20;;;8.23;;
2326;SDS011;1174;51.588;7.328;2023-04-07T04:15:10;9.20;;;6.07;;
2326;SDS011;1174;51.588;7.328;2023-04-07T04:17:37;12.50;;;7.50;;
2326;SDS011;1174;51.588;7.328;2023-04-07T04:20:07;10.70;;;6.93;;
2326;SDS011;1174;51.588;7.328;2023-04-07T04:22:35;12.33;;;5.87;;
2326;SDS011;1174;51.588;7.328;2023-04-07T04:25:03;11.17;;;6.70;;
2326;SDS011;1174;51.588;7.328;2023-04-07T04:27:30;12.63;;;5.60;;
2326;SDS011;1174;51.588;7.328;2023-04-07T04:29:57;12.57;;;7.20;;
2326;SDS011;1174;51.588;7.328;2023-04-07T04:32:24;8.47;;;6.00;;
2326;SDS011;1174;51.588;7.328;2023-04-07T04:34:51;12.77;;;6.60;;
2326;SDS011;1174;51.588;7.328;2023-04-07T04:37:20;9.90;;;6.60;;
2326;SDS011;1174;51.588;7.328;2023-04-07T04:39:47;13.40;;;7.50;;
2326;SDS011;1174;51.588;7.328;2023-04-07T04:42:14;17.27;;;8.83;;
2326;SDS011;1174;51.588;7.328;2023-04-07T04:44:44;14.17;;;8.30;;
2326;SDS011;1174;51.588;7.328;2023-04-07T04:47:10;17.20;;;7.00;;
2326;SDS011;1174;51.588;7.328;2023-04-07T04:49:42;13.33;;;7.63;;
2326;SDS011;1174;51.588;7.328;2023-04-07T04:52:12;22.00;;;9.70;;
2326;SDS011;1174;51.588;7.328;2023-04-07T04:54:41;9.30;;;6.73;;
2326;SDS011;1174;51.588;7.328;2023-04-07T04:57:08;18.30;;;8.13;;
2326;SDS011;1174;51.588;7.328;2023-04-07T04:59:38;17.33;;;7.23;;
2326;SDS011;1174;51.588;7.328;2023-04-07T05:02:08;12.70;;;6.43;;
2326;SDS011;1174;51.588;7.328;2023-04-07T05:04:37;15.37;;;6.73;;
2326;SDS011;1174;51.588;7.328;2023-04-07T05:07:05;15.70;;;7.03;;
2326;SDS011;1174;51.588;7.328;2023-04-07T05:09:32;12.17;;;5.70;;
2326;SDS011;1174;51.588;7.328;2023-04-07T05:12:08;9.70;;;6.07;;
2326;SDS011;1174;51.588;7.328;2023-04-07T05:14:38;22.63;;;8.30;;
2326;SDS011;1174;51.588;7.328;2023-04-07T05:17:05;15.77;;;7.63;;
2326;SDS011;1174;51.588;7.328;2023-04-07T05:19:41;12.60;;;8.10;;
2326;SDS011;1174;51.588;7.328;2023-04-07T05:22:08;11.77;;;6.33;;
2326;SDS011;1174;51.588;7.328;2023-04-07T05:24:36;10.60;;;6.50;;
2326;SDS011;1174;51.588;7.328;2023-04-07T05:27:07;15.70;;;6.40;;
2326;SDS011;1174;51.588;7.328;2023-04-07T05:29:34;11.17;;;7.40;;
2326;SDS011;1174;51.588;7.328;2023-04-07T05:32:01;17.63;;;7.67;;
2326;SDS011;1174;51.588;7.328;2023-04-07T05:34:30;14.33;;;6.27;;
2326;SDS011;1174;51.588;7.328;2023-04-07T05:36:57;12.63;;;6.53;;
2326;SDS011;1174;51.588;7.328;2023-04-07T05:39:24;11.47;;;5.60;;
2326;SDS011;1174;51.588;7.328;2023-04-07T05:41:52;13.70;;;6.00;;
2326;SDS011;1174;51.588;7.328;2023-04-07T05:44:20;14.77;;;5.83;;
2326;SDS011;1174;51.588;7.328;2023-04-07T05:46:47;11.23;;;4.40;;
2326;SDS011;1174;51.588;7.328;2023-04-07T05:49:15;10.10;;;6.40;;
2326;SDS011;1174;51.588;7.328;2023-04-07T05:51:42;12.20;;;7.57;;
2326;SDS011;1174;51.588;7.328;2023-04-07T05:54:09;8.70;;;4.53;;
2326;SDS011;1174;51.588;7.328;2023-04-07T05:56:37;10.13;;;5.97;;
2326;SDS011;1174;51.588;7.328;2023-04-07T05:59:04;7.67;;;4.20;;
2326;SDS011;1174;51.588;7.328;2023-04-07T06:01:33;7.13;;;4.80;;
2326;SDS011;1174;51.588;7.328;2023-04-07T06:04:00;11.50;;;5.80;;
2326;SDS011;1174;51.588;7.328;2023-04-07T06:06:27;15.73;;;4.77;;
2326;SDS011;1174;51.588;7.328;2023-04-07T06:08:55;8.57;;;4.47;;
2326;SDS011;1174;51.588;7.328;2023-04-07T06:11:22;6.67;;;4.37;;
2326;SDS011;1174;51.588;7.328;2023-04-07T06:13:50;12.43;;;6.33;;
2326;SDS011;1174;51.588;7.328;2023-04-07T06:16:17;9.40;;;5.57;;
2326;SDS011;1174;51.588;7.328;2023-04-07T06:18:46;6.53;;;4.30;;
2326;SDS011;1174;51.588;7.328;2023-04-07T06:21:13;7.10;;;4.30;;
2326;SDS011;1174;51.588;7.328;2023-04-07T06:23:40;11.07;;;6.00;;
2326;SDS011;1174;51.588;7.328;2023-04-07T06:26:09;10.53;;;5.40;;
2326;SDS011;1174;51.588;7.328;2023-04-07T06:28:36;9.40;;;5.00;;
2326;SDS011;1174;51.588;7.328;2023-04-07T06:31:04;7.23;;;4.50;;
2326;SDS011;1174;51.588;7.328;2023-04-07T06:33:31;9.20;;;5.23;;
2326;SDS011;1174;51.588;7.328;2023-04-07T06:36:00;8.67;;;5.33;;
2326;SDS011;1174;51.588;7.328;2023-04-07T06:38:27;7.60;;;5.00;;
2326;SDS011;1174;51.588;7.328;2023-04-07T06:40:54;10.80;;;5.20;;
2326;SDS011;1174;51.588;7.328;2023-04-07T06:43:21;14.40;;;5.30;;
2326;SDS011;1174;51.588;7.328;2023-04-07T06:45:49;8.70;;;5.03;;
2326;SDS011;1174;51.588;7.328;2023-04-07T06:48:30;10.20;;;5.70;;
2326;SDS011;1174;51.588;7.328;2023-04-07T06:50:57;5.83;;;4.10;;
2326;SDS011;1174;51.588;7.328;2023-04-07T06:53:25;7.90;;;5.00;;
2326;SDS011;1174;51.588;7.328;2023-04-07T06:56:01;12.80;;;5.27;;
2326;SDS011;1174;51.588;7.328;2023-04-07T06:58:29;13.27;;;6.20;;
2326;SDS011;1174;51.588;7.328;2023-04-07T07:00:56;7.70;;;4.47;;
2326;SDS011;1174;51.588;7.328;2023-04-07T07:03:24;8.03;;;4.97;;
2326;SDS011;1174;51.588;7.328;2023-04-07T07:05:52;9.20;;;4.57;;
2326;SDS011;1174;51.588;7.328;2023-04-07T07:08:24;8.83;;;4.87;;
2326;SDS011;1174;51.588;7.328;2023-04-07T07:10:51;9.47;;;4.60;;
2326;SDS011;1174;51.588;7.328;2023-04-07T07:13:20;10.93;;;4.80;;
2326;SDS011;1174;51.588;7.328;2023-04-07T07:15:48;9.37;;;5.70;;
2326;SDS011;1174;51.588;7.328;2023-04-07T07:18:16;9.47;;;4.70;;
2326;SDS011;1174;51.588;7.328;2023-04-07T07:20:43;9.00;;;5.17;;
2326;SDS011;1174;51.588;7.328;2023-04-07T07:23:11;11.53;;;6.30;;
2326;SDS011;1174;51.588;7.328;2023-04-07T07:25:40;7.80;;;5.17;;
2326;SDS011;1174;51.588;7.328;2023-04-07T07:28:07;9.53;;;5.07;;
2326;SDS011;1174;51.588;7.328;2023-04-07T07:30:34;9.00;;;4.60;;
2326;SDS011;1174;51.588;7.328;2023-04-07T07:33:02;9.97;;;5.90;;
2326;SDS011;1174;51.588;7.328;2023-04-07T07:35:31;10.17;;;5.37;;
2326;SDS011;1174;51.588;7.328;2023-04-07T07:38:02;7.23;;;5.50;;
2326;SDS011;1174;51.588;7.328;2023-04-07T07:40:29;13.83;;;6.83;;
2326;SDS011;1174;51.588;7.328;2023-04-07T07:42:57;8.53;;;5.43;;
2326;SDS011;1174;51.588;7.328;2023-04-07T07:45:25;13.30;;;5.60;;
2326;SDS011;1174;51.588;7.328;2023-04-07T07:47:52;14.03;;;6.87;;
2326;SDS011;1174;51.588;7.328;2023-04-07T07:50:19;9.67;;;4.83;;
2326;SDS011;1174;51.588;7.328;2023-04-07T07:52:46;9.30;;;4.73;;
2326;SDS011;1174;51.588;7.328;2023-04-07T07:55:16;5.00;;;3.97;;
2326;SDS011;1174;51.588;7.328;2023-04-07T07:57:43;6.67;;;4.47;;
2326;SDS011;1174;51.588;7.328;2023-04-07T08:00:12;9.20;;;4.47;;
2326;SDS011;1174;51.588;7.328;2023-04-07T08:02:41;7.23;;;4.90;;
2326;SDS011;1174;51.588;7.328;2023-04-07T08:05:08;8.37;;;5.10;;
2326;SDS011;1174;51.588;7.328;2023-04-07T08:07:35;5.33;;;2.83;;
2326;SDS011;1174;51.588;7.328;2023-04-07T08:10:02;6.40;;;3.50;;
2326;SDS011;1174;51.588;7.328;2023-04-07T08:12:30;5.70;;;3.53;;
2326;SDS011;1174;51.588;7.328;2023-04-07T08:14:57;5.57;;;4.17;;
2326;SDS011;1174;51.588;7.328;2023-04-07T08:17:26;8.73;;;5.67;;
2326;SDS011;1174;51.588;7.328;2023-04-07T08:19:53;8.43;;;4.23;;
2326;SDS011;1174;51.588;7.328;2023-04-07T08:22:20;7.67;;;4.13;;
2326;SDS011;1174;51.588;7.328;2023-04-07T08:24:47;8.17;;;4.10;;
2326;SDS011;1174;51.588;7.328;2023-04-07T08:27:14;9.10;;;4.13;;
2326;SDS011;1174;51.588;7.328;2023-04-07T08:29:41;7.10;;;3.77;;
2326;SDS011;1174;51.588;7.328;2023-04-07T08:32:09;6.27;;;3.20;;
2326;SDS011;1174;51.588;7.328;2023-04-07T08:34:41;5.27;;;3.00;;
2326;SDS011;1174;51.588;7.328;2023-04-07T08:37:11;6.40;;;3.80;;
2326;SDS011;1174;51.588;7.328;2023-04-07T08:39:38;4.70;;;3.30;;
2326;SDS011;1174;51.588;7.328;2023-04-07T08:42:08;7.03;;;3.83;;
2326;SDS011;1174;51.588;7.328;2023-04-07T08:44:40;7.00;;;4.00;;
2326;SDS011;1174;51.588;7.328;2023-04-07T08:47:11;5.87;;;3.50;;
2326;SDS011;1174;51.588;7.328;2023-04-07T08:52:32;6.50;;;3.97;;
2326;SDS011;1174;51.588;7.328;2023-04-07T08:55:00;12.60;;;5.37;;
2326;SDS011;1174;51.588;7.328;2023-04-07T08:57:31;11.20;;;4.40;;
2326;SDS011;1174;51.588;7.328;2023-04-07T08:59:59;8.63;;;5.13;;
2326;SDS011;1174;51.588;7.328;2023-04-07T09:02:30;11.60;;;5.93;;
2326;SDS011;1174;51.588;7.328;2023-04-07T09:05:00;5.90;;;5.30;;
2326;SDS011;1174;51.588;7.328;2023-04-07T09:07:31;6.20;;;3.40;;
2326;SDS011;1174;51.588;7.328;2023-04-07T09:10:00;6.97;;;3.53;;
2326;SDS011;1174;51.588;7.328;2023-04-07T09:12:27;4.93;;;3.10;;
2326;SDS011;1174;51.588;7.328;2023-04-07T09:14:55;3.13;;;2.83;;
2326;SDS011;1174;51.588;7.328;2023-04-07T09:17:23;7.30;;;4.37;;
2326;SDS011;1174;51.588;7.328;2023-04-07T09:19:52;3.93;;;3.27;;
2326;SDS011;1174;51.588;7.328;2023-04-07T09:22:39;5.13;;;4.50;;
2326;SDS011;1174;51.588;7.328;2023-04-07T09:25:14;7.40;;;4.30;;
2326;SDS011;1174;51.588;7.328;2023-04-07T09:27:53;4.20;;;2.57;;
2326;SDS011;1174;51.588;7.328;2023-04-07T09:30:21;4.80;;;3.60;;
2326;SDS011;1174;51.588;7.328;2023-04-07T09:32:48;3.57;;;3.13;;
2326;SDS011;1174;51.588;7.328;2023-04-07T09:35:16;6.20;;;3.83;;
2326;SDS011;1174;51.588;7.328;2023-04-07T09:37:45;4.80;;;3.30;;
2326;SDS011;1174;51.588;7.328;2023-04-07T09:40:28;5.03;;;2.90;;
2326;SDS011;1174;51.588;7.328;2023-04-07T09:42:55;5.57;;;3.20;;
2326;SDS011;1174;51.588;7.328;2023-04-07T09:45:25;3.60;;;2.80;;
2326;SDS011;1174;51.588;7.328;2023-04-07T09:47:53;4.00;;;2.77;;
2326;SDS011;1174;51.588;7.328;2023-04-07T09:50:30;4.30;;;3.00;;
2326;SDS011;1174;51.588;7.328;2023-04-07T09:53:00;7.00;;;4.30;;
2326;SDS011;1174;51.588;7.328;2023-04-07T09:55:28;3.60;;;3.30;;
2326;SDS011;1174;51.588;7.328;2023-04-07T09:57:59;5.37;;;4.07;;
2326;SDS011;1174;51.588;7.328;2023-04-07T10:00:31;13.87;;;4.90;;
2326;SDS011;1174;51.588;7.328;2023-04-07T10:03:03;3.77;;;3.37;;
2326;SDS011;1174;51.588;7.328;2023-04-07T10:05:33;7.57;;;4.73;;
2326;SDS011;1174;51.588;7.328;2023-04-07T10:08:03;10.57;;;4.10;;
2326;SDS011;1174;51.588;7.328;2023-04-07T10:10:34;4.03;;;2.60;;
2326;SDS011;1174;51.588;7.328;2023-04-07T10:13:02;4.70;;;2.93;;
2326;SDS011;1174;51.588;7.328;2023-04-07T10:15:32;3.97;;;2.97;;
2326;SDS011;1174;51.588;7.328;2023-04-07T10:18:02;6.47;;;4.03;;
2326;SDS011;1174;51.588;7.328;2023-04-07T10:20:32;4.63;;;3.90;;
2326;SDS011;1174;51.588;7.328;2023-04-07T10:23:02;8.90;;;5.77;;
2326;SDS011;1174;51.588;7.328;2023-04-07T10:25:34;5.67;;;3.80;;
2326;SDS011;1174;51.588;7.328;2023-04-07T10:28:03;3.67;;;3.00;;
2326;SDS011;1174;51.588;7.328;2023-04-07T10:30:32;3.97;;;2.80;;
2326;SDS011;1174;51.588;7.328;2023-04-07T10:33:00;4.30;;;2.67;;
2326;SDS011;1174;51.588;7.328;2023-04-07T10:35:27;5.00;;;3.57;;
2326;SDS011;1174;51.588;7.328;2023-04-07T10:38:16;5.43;;;3.33;;
2326;SDS011;1174;51.588;7.328;2023-04-07T10:40:43;4.10;;;3.70;;
2326;SDS011;1174;51.588;7.328;2023-04-07T10:43:10;3.70;;;2.97;;
2326;SDS011;1174;51.588;7.328;2023-04-07T10:45:50;5.53;;;3.60;;
2326;SDS011;1174;51.588;7.328;2023-04-07T10:48:23;4.10;;;2.87;;
2326;SDS011;1174;51.588;7.328;2023-04-07T10:51:11;4.93;;;3.77;;
2326;SDS011;1174;51.588;7.328;2023-04-07T10:57:05;5.90;;;3.03;;
2326;SDS011;1174;51.588;7.328;2023-04-07T10:59:37;4.10;;;3.63;;
2326;SDS011;1174;51.588;7.328;2023-04-07T11:02:34;4.20;;;3.53;;
2326;SDS011;1174;51.588;7.328;2023-04-07T11:05:03;4.30;;;3.50;;
2326;SDS011;1174;51.588;7.328;2023-04-07T11:07:44;4.87;;;4.30;;
2326;SDS011;1174;51.588;7.328;2023-04-07T11:10:14;6.70;;;4.03;;
2326;SDS011;1174;51.588;7.328;2023-04-07T11:12:44;5.47;;;3.87;;
2326;SDS011;1174;51.588;7.328;2023-04-07T11:15:27;4.10;;;3.07;;
2326;SDS011;1174;51.588;7.328;2023-04-07T11:18:11;7.17;;;2.80;;
2326;SDS011;1174;51.588;7.328;2023-04-07T11:20:46;2.53;;;2.23;;
2326;SDS011;1174;51.588;7.328;2023-04-07T11:23:14;4.57;;;2.90;;
2326;SDS011;1174;51.588;7.328;2023-04-07T11:25:43;3.80;;;3.03;;
2326;SDS011;1174;51.588;7.328;2023-04-07T11:28:13;3.73;;;2.30;;
2326;SDS011;1174;51.588;7.328;2023-04-07T11:30:45;3.97;;;2.90;;
2326;SDS011;1174;51.588;7.328;2023-04-07T11:33:18;5.47;;;2.77;;
2326;SDS011;1174;51.588;7.328;2023-04-07T11:35:47;3.53;;;2.70;;
2326;SDS011;1174;51.588;7.328;2023-04-07T11:38:20;4.73;;;2.90;;
2326;SDS011;1174;51.588;7.328;2023-04-07T11:40:47;3.73;;;2.60;;
2326;SDS011;1174;51.588;7.328;2023-04-07T11:43:16;4.90;;;2.33;;
2326;SDS011;1174;51.588;7.328;2023-04-07T11:45:45;2.57;;;2.10;;
2326;SDS011;1174;51.588;7.328;2023-04-07T11:48:29;5.47;;;3.40;;
2326;SDS011;1174;51.588;7.328;2023-04-07T11:50:57;2.37;;;2.17;;
2326;SDS011;1174;51.588;7.328;2023-04-07T11:53:26;4.00;;;2.40;;
2326;SDS011;1174;51.588;7.328;2023-04-07T11:55:58;3.20;;;2.40;;
2326;SDS011;1174;51.588;7.328;2023-04-07T11:58:28;2.57;;;2.23;;
2326;SDS011;1174;51.588;7.328;2023-04-07T12:00:55;4.70;;;3.30;;
2326;SDS011;1174;51.588;7.328;2023-04-07T12:03:23;2.63;;;2.40;;
2326;SDS011;1174;51.588;7.328;2023-04-07T12:05:50;2.07;;;1.80;;
2326;SDS011;1174;51.588;7.328;2023-04-07T12:08:21;3.73;;;2.63;;
2326;SDS011;1174;51.588;7.328;2023-04-07T12:11:04;2.80;;;2.10;;
2326;SDS011;1174;51.588;7.328;2023-04-07T12:13:34;2.20;;;1.73;;
2326;SDS011;1174;51.588;7.328;2023-04-07T12:16:02;2.70;;;2.27;;
2326;SDS011;1174;51.588;7.328;2023-04-07T12:18:29;2.10;;;1.70;;
2326;SDS011;1174;51.588;7.328;2023-04-07T12:20:57;2.27;;;2.07;;
2326;SDS011;1174;51.588;7.328;2023-04-07T12:23:24;2.63;;;2.43;;
2326;SDS011;1174;51.588;7.328;2023-04-07T12:25:51;6.07;;;2.10;;
2326;SDS011;1174;51.588;7.328;2023-04-07T12:28:18;2.43;;;2.03;;
2326;SDS011;1174;51.588;7.328;2023-04-07T12:30:47;3.10;;;2.50;;
2326;SDS011;1174;51.588;7.328;2023-04-07T12:33:17;3.13;;;2.83;;
2326;SDS011;1174;51.588;7.328;2023-04-07T12:35:44;3.90;;;2.93;;
2326;SDS011;1174;51.588;7.328;2023-04-07T12:38:12;2.70;;;2.20;;
2326;SDS011;1174;51.588;7.328;2023-04-07T12:40:39;3.00;;;2.40;;
2326;SDS011;1174;51.588;7.328;2023-04-07T12:43:07;2.83;;;2.00;;
2326;SDS011;1174;51.588;7.328;2023-04-07T12:45:34;4.17;;;3.27;;
2326;SDS011;1174;51.588;7.328;2023-04-07T12:48:03;7.77;;;3.90;;
2326;SDS011;1174;51.588;7.328;2023-04-07T12:50:30;3.43;;;2.20;;
2326;SDS011;1174;51.588;7.328;2023-04-07T12:52:57;3.50;;;2.47;;
2326;SDS011;1174;51.588;7.328;2023-04-07T12:55:29;2.63;;;2.13;;
2326;SDS011;1174;51.588;7.328;2023-04-07T12:57:57;2.90;;;2.10;;
2326;SDS011;1174;51.588;7.328;2023-04-07T13:00:24;2.27;;;2.07;;
2326;SDS011;1174;51.588;7.328;2023-04-07T13:02:51;3.00;;;2.47;;
2326;SDS011;1174;51.588;7.328;2023-04-07T13:05:20;3.67;;;2.37;;
2326;SDS011;1174;51.588;7.328;2023-04-07T13:07:47;5.87;;;3.33;;
2326;SDS011;1174;51.588;7.328;2023-04-07T13:10:15;3.83;;;2.27;;
2326;SDS011;1174;51.588;7.328;2023-04-07T13:12:42;4.17;;;3.00;;
2326;SDS011;1174;51.588;7.328;2023-04-07T13:15:09;3.40;;;2.30;;
2326;SDS011;1174;51.588;7.328;2023-04-07T13:17:36;3.43;;;3.20;;
2326;SDS011;1174;51.588;7.328;2023-04-07T13:20:05;3.20;;;2.60;;
2326;SDS011;1174;51.588;7.328;2023-04-07T13:22:34;4.30;;;3.13;;
2326;SDS011;1174;51.588;7.328;2023-04-07T13:25:01;2.47;;;2.27;;
2326;SDS011;1174;51.588;7.328;2023-04-07T13:27:28;3.47;;;3.10;;
2326;SDS011;1174;51.588;7.328;2023-04-07T13:29:55;4.13;;;3.00;;
2326;SDS011;1174;51.588;7.328;2023-04-07T13:32:22;3.50;;;3.20;;
2326;SDS011;1174;51.588;7.328;2023-04-07T13:34:50;2.77;;;2.37;;
2326;SDS011;1174;51.588;7.328;2023-04-07T13:37:18;2.77;;;2.50;;
2326;SDS011;1174;51.588;7.328;2023-04-07T13:39:46;3.93;;;3.23;;
2326;SDS011;1174;51.588;7.328;2023-04-07T13:42:13;4.40;;;2.90;;
2326;SDS011;1174;51.588;7.328;2023-04-07T13:44:43;4.00;;;3.20;;
2326;SDS011;1174;51.588;7.328;2023-04-07T13:47:12;4.83;;;3.50;;
2326;SDS011;1174;51.588;7.328;2023-04-07T13:49:44;4.97;;;3.67;;
2326;SDS011;1174;51.588;7.328;2023-04-07T13:52:14;4.67;;;3.30;;
2326;SDS011;1174;51.588;7.328;2023-04-07T13:54:43;3.13;;;2.67;;
2326;SDS011;1174;51.588;7.328;2023-04-07T13:57:12;3.83;;;3.30;;
2326;SDS011;1174;51.588;7.328;2023-04-07T13:59:44;3.73;;;3.23;;
2326;SDS011;1174;51.588;7.328;2023-04-07T14:02:12;4.70;;;3.60;;
2326;SDS011;1174;51.588;7.328;2023-04-07T14:04:40;3.47;;;2.93;;
2326;SDS011;1174;51.588;7.328;2023-04-07T14:07:07;4.50;;;4.10;;
2326;SDS011;1174;51.588;7.328;2023-04-07T14:09:34;4.07;;;3.43;;
2326;SDS011;1174;51.588;7.328;2023-04-07T14:12:02;6.20;;;3.70;;
2326;SDS011;1174;51.588;7.328;2023-04-07T14:14:30;4.07;;;3.47;;
2326;SDS011;1174;51.588;7.328;2023-04-07T14:16:58;4.10;;;3.47;;
2326;SDS011;1174;51.588;7.328;2023-04-07T14:19:25;4.77;;;3.87;;
2326;SDS011;1174;51.588;7.328;2023-04-07T14:21:52;5.00;;;4.10;;
2326;SDS011;1174;51.588;7.328;2023-04-07T14:24:20;4.80;;;3.60;;
2326;SDS011;1174;51.588;7.328;2023-04-07T14:26:48;7.00;;;3.97;;
2326;SDS011;1174;51.588;7.328;2023-04-07T14:29:18;4.50;;;3.97;;
2326;SDS011;1174;51.588;7.328;2023-04-07T14:31:47;3.23;;;2.90;;
2326;SDS011;1174;51.588;7.328;2023-04-07T14:34:15;4.57;;;4.00;;
2326;SDS011;1174;51.588;7.328;2023-04-07T14:36:51;5.23;;;3.70;;
2326;SDS011;1174;51.588;7.328;2023-04-07T14:39:20;4.40;;;3.23;;
2326;SDS011;1174;51.588;7.328;2023-04-07T14:41:48;6.43;;;3.83;;
2326;SDS011;1174;51.588;7.328;2023-04-07T14:44:15;4.27;;;3.10;;
2326;SDS011;1174;51.588;7.328;2023-04-07T14:46:42;4.70;;;3.57;;
2326;SDS011;1174;51.588;7.328;2023-04-07T14:49:12;4.30;;;3.90;;
2326;SDS011;1174;51.588;7.328;2023-04-07T14:51:39;7.37;;;3.97;;
2326;SDS011;1174;51.588;7.328;2023-04-07T14:54:07;4.40;;;3.20;;
2326;SDS011;1174;51.588;7.328;2023-04-07T14:56:34;3.07;;;2.63;;
2326;SDS011;1174;51.588;7.328;2023-04-07T14:59:01;7.40;;;3.00;;
2326;SDS011;1174;51.588;7.328;2023-04-07T15:01:28;3.23;;;2.50;;
2326;SDS011;1174;51.588;7.328;2023-04-07T15:03:56;3.60;;;2.80;;
2326;SDS011;1174;51.588;7.328;2023-04-07T15:06:28;3.70;;;2.60;;
2326;SDS011;1174;51.588;7.328;2023-04-07T15:08:59;3.20;;;2.90;;
2326;SDS011;1174;51.588;7.328;2023-04-07T15:11:26;2.50;;;2.30;;
2326;SDS011;1174;51.588;7.328;2023-04-07T15:13:53;5.73;;;3.47;;
2326;SDS011;1174;51.588;7.328;2023-04-07T15:16:20;3.27;;;2.97;;
2326;SDS011;1174;51.588;7.328;2023-04-07T15:18:47;3.20;;;2.90;;
2326;SDS011;1174;51.588;7.328;2023-04-07T15:21:15;6.23;;;3.40;;
2326;SDS011;1174;51.588;7.328;2023-04-07T15:23:44;3.43;;;2.80;;
2326;SDS011;1174;51.588;7.328;2023-04-07T15:26:12;3.53;;;3.17;;
2326;SDS011;1174;51.588;7.328;2023-04-07T15:28:39;4.90;;;3.43;;
2326;SDS011;1174;51.588;7.328;2023-04-07T15:31:06;3.20;;;2.90;;